Time;durP1;ratioP1;P1;durP2;ratioP2;P2;SDS_P1;SDS_P2;PMS_P1;PMS_P2;Temp;Humidity;BMP_temperature;BMP_pressure;BME280_temperature;BME280_humidity;BME280_pressure;Samples;Min_cycle;Max_cycle;Signal;HPM_P1;HPM_P2
2023/04/27 00:01:14;;;;;;;1.60;0.60;;;7.90;73.00;;;;;;5048755;28;20182;-71
2023/04/27 00:03:41;;;;;;;0.47;0.47;;;7.90;73.10;;;;;;5044209;28;20187;-72
2023/04/27 00:06:09;;;;;;;0.50;0.50;;;7.90;73.10;;;;;;5052726;28;20813;-71
2023/04/27 00:08:35;;;;;;;0.60;0.60;;;7.90;73.10;;;;;;5056185;28;20299;-72
2023/04/27 00:11:01;;;;;;;0.70;0.70;;;7.80;73.20;;;;;;5054471;28;20176;-72
2023/04/27 00:13:27;;;;;;;1.13;0.60;;;7.80;73.00;;;;;;5048981;28;20194;-72
2023/04/27 00:15:53;;;;;;;0.60;0.60;;;7.70;72.90;;;;;;5055612;28;20243;-73
2023/04/27 00:18:19;;;;;;;0.83;0.50;;;7.70;73.20;;;;;;5055840;28;20610;-72
2023/04/27 00:20:45;;;;;;;1.00;0.80;;;7.70;73.60;;;;;;5061623;28;20180;-72
2023/04/27 00:23:10;;;;;;;0.93;0.60;;;7.60;73.50;;;;;;5060092;28;20201;-71
2023/04/27 00:25:37;;;;;;;0.43;0.43;;;7.50;73.80;;;;;;5059014;28;20172;-72
2023/04/27 00:28:03;;;;;;;0.60;0.60;;;7.40;74.00;;;;;;5059708;28;20690;-72
2023/04/27 00:30:29;;;;;;;1.90;0.70;;;7.40;74.10;;;;;;5055469;28;20215;-71
2023/04/27 00:32:55;;;;;;;0.43;0.43;;;7.40;74.10;;;;;;5055022;28;20720;-72
2023/04/27 00:35:20;;;;;;;4.63;0.60;;;7.30;74.20;;;;;;5058140;28;20629;-70
2023/04/27 00:37:46;;;;;;;2.03;0.70;;;7.30;74.40;;;;;;5057387;28;20235;-70
2023/04/27 00:40:12;;;;;;;0.50;0.50;;;7.30;74.30;;;;;;5057460;28;20540;-71
2023/04/27 00:42:37;;;;;;;0.50;0.50;;;7.20;74.50;;;;;;5058984;28;20179;-71
2023/04/27 00:45:04;;;;;;;1.83;0.67;;;7.20;74.60;;;;;;5065061;28;20280;-71
2023/04/27 00:47:31;;;;;;;1.00;0.90;;;7.10;74.90;;;;;;5058477;28;20586;-71
2023/04/27 00:49:57;;;;;;;0.67;0.67;;;7.00;74.90;;;;;;5057866;28;20591;-71
2023/04/27 00:52:23;;;;;;;1.53;0.30;;;6.90;75.20;;;;;;5059097;28;20171;-71
2023/04/27 00:54:51;;;;;;;0.40;0.40;;;7.00;75.20;;;;;;5057580;28;20590;-71
2023/04/27 00:57:17;;;;;;;1.50;0.40;;;6.80;75.50;;;;;;5060522;28;20179;-71
2023/04/27 00:59:43;;;;;;;1.83;0.47;;;6.80;75.60;;;;;;5055992;28;20181;-72
2023/04/27 01:02:10;;;;;;;0.20;0.20;;;6.70;75.70;;;;;;5062436;28;20183;-71
2023/04/27 01:04:36;;;;;;;0.53;0.53;;;6.60;75.70;;;;;;5059450;28;20187;-70
2023/04/27 01:07:02;;;;;;;0.50;0.50;;;6.60;76.00;;;;;;5060516;28;20265;-71
2023/04/27 01:09:28;;;;;;;0.50;0.50;;;6.60;76.10;;;;;;5057122;28;20653;-71
2023/04/27 01:11:53;;;;;;;2.03;0.60;;;6.60;76.10;;;;;;5064623;28;20181;-71
2023/04/27 01:14:19;;;;;;;0.50;0.50;;;6.60;76.10;;;;;;5055284;28;20221;-72
2023/04/27 01:16:45;;;;;;;0.40;0.40;;;6.60;76.20;;;;;;5054971;28;20190;-71
2023/04/27 01:19:11;;;;;;;0.40;0.40;;;6.60;76.20;;;;;;5060172;28;20249;-70
2023/04/27 01:21:36;;;;;;;1.03;0.70;;;6.60;76.20;;;;;;5059669;28;20179;-70
2023/04/27 01:24:06;;;;;;;0.53;0.53;;;6.60;76.30;;;;;;5061689;28;20727;-72
2023/04/27 01:26:32;;;;;;;3.50;0.50;;;6.60;76.30;;;;;;5057344;28;20547;-71
2023/04/27 01:28:58;;;;;;;0.30;0.30;;;6.50;76.20;;;;;;5049474;28;20204;-71
2023/04/27 01:31:23;;;;;;;0.47;0.47;;;6.60;76.10;;;;;;5056646;28;20167;-70
2023/04/27 01:33:49;;;;;;;0.53;0.53;;;6.50;76.10;;;;;;5052602;28;20765;-71
2023/04/27 01:36:15;;;;;;;1.33;0.33;;;6.50;76.20;;;;;;5054069;28;20186;-72
2023/04/27 01:38:41;;;;;;;0.67;0.67;;;6.50;76.20;;;;;;5053459;28;20167;-71
2023/04/27 01:41:08;;;;;;;0.50;0.50;;;6.50;76.30;;;;;;5062284;28;20195;-71
2023/04/27 01:43:35;;;;;;;0.50;0.50;;;6.60;76.10;;;;;;5054757;28;20183;-72
2023/04/27 01:46:09;;;;;;;0.50;0.50;;;6.50;76.10;;;;;;5052401;28;20178;-71
2023/04/27 01:48:35;;;;;;;0.50;0.50;;;6.50;76.40;;;;;;5051560;28;20219;-71
2023/04/27 01:51:02;;;;;;;1.20;0.50;;;6.50;76.40;;;;;;5056099;28;20572;-71
2023/04/27 01:53:28;;;;;;;2.10;0.80;;;6.50;75.90;;;;;;5049884;28;20192;-72
2023/04/27 01:55:54;;;;;;;0.40;0.40;;;6.60;75.80;;;;;;5055295;28;20861;-71
2023/04/27 01:58:20;;;;;;;0.80;0.50;;;6.50;75.90;;;;;;5053570;28;20210;-71
2023/04/27 02:00:45;;;;;;;3.20;1.03;;;6.50;76.10;;;;;;5058439;28;20183;-71
2023/04/27 02:03:11;;;;;;;0.40;0.40;;;6.60;75.70;;;;;;5055249;28;20179;-71
2023/04/27 02:05:37;;;;;;;0.60;0.60;;;6.50;75.90;;;;;;5051819;28;20190;-72
2023/04/27 02:08:02;;;;;;;4.70;1.07;;;6.50;75.90;;;;;;5054625;28;20215;-71
2023/04/27 02:10:28;;;;;;;0.70;0.60;;;6.40;75.90;;;;;;5056048;28;20180;-71
2023/04/27 02:12:54;;;;;;;0.50;0.50;;;6.30;75.90;;;;;;5055184;28;20254;-69
2023/04/27 02:15:20;;;;;;;0.80;0.60;;;6.30;76.00;;;;;;5054037;28;20740;-71
2023/04/27 02:17:45;;;;;;;3.13;0.50;;;6.30;76.00;;;;;;5055422;28;20183;-70
2023/04/27 02:20:11;;;;;;;0.73;0.57;;;6.30;76.10;;;;;;5050373;28;20187;-71
2023/04/27 02:22:42;;;;;;;0.60;0.60;;;6.30;76.20;;;;;;5051861;28;20253;-71
2023/04/27 02:25:10;;;;;;;0.60;0.43;;;6.30;76.20;;;;;;5053707;28;20183;-71
2023/04/27 02:27:40;;;;;;;2.00;0.50;;;6.40;76.10;;;;;;5054502;28;20223;-70
2023/04/27 02:30:06;;;;;;;1.70;0.53;;;6.40;75.70;;;;;;5051962;28;20194;-70
2023/04/27 02:32:32;;;;;;;0.50;0.50;;;6.40;75.70;;;;;;5051649;28;20578;-72
2023/04/27 02:34:58;;;;;;;0.40;0.40;;;6.40;75.50;;;;;;5052237;28;20179;-72
2023/04/27 02:37:24;;;;;;;0.60;0.60;;;6.50;75.30;;;;;;5050856;28;20183;-71
2023/04/27 02:39:49;;;;;;;1.70;0.87;;;6.50;75.30;;;;;;5051629;28;20183;-71
2023/04/27 02:42:15;;;;;;;6.33;0.50;;;6.50;75.10;;;;;;5054018;28;20187;-71
2023/04/27 02:44:41;;;;;;;1.27;0.70;;;6.50;74.80;;;;;;5056071;28;20179;-71
2023/04/27 02:47:06;;;;;;;0.50;0.50;;;6.50;75.00;;;;;;5057752;28;20214;-72
2023/04/27 02:49:32;;;;;;;1.60;0.33;;;6.50;75.00;;;;;;5056023;28;20245;-70
2023/04/27 02:51:58;;;;;;;0.60;0.60;;;6.50;75.00;;;;;;5052706;28;20183;-71
2023/04/27 02:54:24;;;;;;;0.60;0.60;;;6.50;74.80;;;;;;5051096;28;20573;-71
2023/04/27 02:56:50;;;;;;;0.40;0.40;;;6.50;75.00;;;;;;5051350;28;20175;-70
2023/04/27 02:59:15;;;;;;;0.60;0.60;;;6.50;74.90;;;;;;5052934;28;20189;-70
2023/04/27 03:01:41;;;;;;;0.60;0.60;;;6.60;75.00;;;;;;5051710;28;20176;-71
2023/04/27 03:04:07;;;;;;;1.17;0.93;;;6.50;74.70;;;;;;5055846;28;20230;-71
2023/04/27 03:06:32;;;;;;;1.23;0.40;;;6.50;74.80;;;;;;5053181;28;20700;-71
2023/04/27 03:08:58;;;;;;;0.47;0.47;;;6.50;74.80;;;;;;5053305;28;20238;-71
2023/04/27 03:11:24;;;;;;;0.40;0.40;;;6.50;74.80;;;;;;5053305;28;20271;-71
2023/04/27 03:13:49;;;;;;;0.70;0.70;;;6.50;74.90;;;;;;5052981;28;20180;-71
2023/04/27 03:16:15;;;;;;;0.40;0.40;;;6.40;74.70;;;;;;5051986;28;20275;-70
2023/04/27 03:18:41;;;;;;;0.43;0.43;;;6.40;74.90;;;;;;5051335;28;21014;-66
2023/04/27 03:21:06;;;;;;;0.83;0.50;;;6.40;74.90;;;;;;5052066;28;20190;-70
2023/04/27 03:23:32;;;;;;;0.43;0.43;;;6.40;74.80;;;;;;5051230;28;20595;-71
2023/04/27 03:25:58;;;;;;;0.33;0.33;;;6.40;74.60;;;;;;5052693;28;20176;-70
2023/04/27 03:28:24;;;;;;;5.37;0.40;;;6.40;74.80;;;;;;5055248;28;20758;-70
2023/04/27 03:30:50;;;;;;;0.83;0.73;;;6.40;74.70;;;;;;5048432;28;20183;-70
2023/04/27 03:33:17;;;;;;;1.30;0.53;;;6.30;74.80;;;;;;5053195;28;20186;-70
2023/04/27 03:35:43;;;;;;;0.63;0.63;;;6.30;75.00;;;;;;5052440;28;20188;-70
2023/04/27 03:38:08;;;;;;;0.40;0.40;;;6.20;75.00;;;;;;5049806;28;20319;-70
2023/04/27 03:40:37;;;;;;;0.40;0.40;;;6.30;75.10;;;;;;5047759;28;20207;-70
2023/04/27 03:43:02;;;;;;;0.60;0.60;;;6.30;75.10;;;;;;5050494;28;20698;-71
2023/04/27 03:45:28;;;;;;;1.43;0.63;;;6.30;74.90;;;;;;5056123;28;20176;-72
2023/04/27 03:47:54;;;;;;;0.53;0.40;;;6.20;74.90;;;;;;5053927;28;20242;-71
2023/04/27 03:50:20;;;;;;;0.73;0.73;;;6.20;74.90;;;;;;5049407;28;20176;-70
2023/04/27 03:52:45;;;;;;;0.60;0.60;;;6.20;74.70;;;;;;5054327;28;20194;-69
2023/04/27 03:55:11;;;;;;;0.90;0.60;;;6.20;74.90;;;;;;5046789;28;20271;-69
2023/04/27 03:57:37;;;;;;;0.67;0.67;;;6.30;74.90;;;;;;5051100;28;20556;-70
2023/04/27 04:00:06;;;;;;;0.50;0.50;;;6.30;74.90;;;;;;5050827;28;20186;-69
2023/04/27 04:02:32;;;;;;;0.73;0.73;;;6.20;74.70;;;;;;5047045;28;20171;-70
2023/04/27 04:04:58;;;;;;;11.53;0.70;;;6.20;74.70;;;;;;5055068;28;20189;-71
2023/04/27 04:07:23;;;;;;;0.50;0.50;;;6.10;75.00;;;;;;5052551;28;20636;-70
2023/04/27 04:09:49;;;;;;;0.63;0.63;;;6.10;75.10;;;;;;5047119;28;20176;-69
2023/04/27 04:12:15;;;;;;;4.50;1.00;;;6.20;75.00;;;;;;5045170;28;20181;-71
2023/04/27 04:14:41;;;;;;;1.37;1.00;;;6.10;74.90;;;;;;5048640;28;20237;-71
2023/04/27 04:17:09;;;;;;;0.70;0.43;;;6.00;74.90;;;;;;5053396;28;20188;-69
2023/04/27 04:19:35;;;;;;;0.67;0.67;;;6.00;74.90;;;;;;5052588;28;20627;-71
2023/04/27 04:22:01;;;;;;;0.60;0.60;;;6.00;75.10;;;;;;5055714;28;20167;-70
2023/04/27 04:24:26;;;;;;;2.30;1.20;;;6.00;75.30;;;;;;5043040;28;20183;-70
2023/04/27 04:26:52;;;;;;;0.80;0.73;;;6.00;75.30;;;;;;5048406;28;20713;-70
2023/04/27 04:29:18;;;;;;;1.23;0.90;;;5.90;75.50;;;;;;5050928;28;20186;-70
2023/04/27 04:31:43;;;;;;;4.33;1.10;;;5.90;75.60;;;;;;5048056;28;20183;-70
2023/04/27 04:34:09;;;;;;;3.67;1.07;;;6.00;75.70;;;;;;5047130;28;20194;-72
2023/04/27 04:36:35;;;;;;;2.33;0.90;;;6.10;75.60;;;;;;5051810;28;20183;-72
2023/04/27 04:39:02;;;;;;;2.70;0.80;;;6.00;75.00;;;;;;5052709;28;20270;-72
2023/04/27 04:41:28;;;;;;;0.97;0.90;;;6.00;75.20;;;;;;5043445;28;20175;-71
2023/04/27 04:43:53;;;;;;;0.90;0.53;;;5.90;74.90;;;;;;5054127;28;20171;-71
2023/04/27 04:46:19;;;;;;;0.90;0.90;;;5.90;75.00;;;;;;5046924;28;20687;-72
2023/04/27 04:48:45;;;;;;;0.63;0.57;;;6.00;75.00;;;;;;5049261;28;20582;-73
2023/04/27 04:51:11;;;;;;;0.70;0.63;;;6.00;74.90;;;;;;5051531;28;20233;-75
2023/04/27 04:53:37;;;;;;;0.50;0.50;;;6.10;74.90;;;;;;5051624;28;20191;-73
2023/04/27 04:56:13;;;;;;;5.00;0.77;;;6.30;74.60;;;;;;5052772;28;20167;-73
2023/04/27 04:58:39;;;;;;;2.33;0.70;;;6.30;74.60;;;;;;5051680;28;20218;-72
2023/04/27 05:01:05;;;;;;;0.50;0.50;;;6.30;74.50;;;;;;5052178;28;20176;-72
2023/04/27 05:03:31;;;;;;;2.23;0.67;;;6.40;74.60;;;;;;5049769;28;20179;-73
2023/04/27 05:05:57;;;;;;;2.83;1.10;;;6.50;74.40;;;;;;5055861;28;20176;-73
2023/04/27 05:08:23;;;;;;;1.63;0.50;;;6.60;74.30;;;;;;5057617;28;20837;-73
2023/04/27 05:10:50;;;;;;;1.03;0.73;;;6.70;73.80;;;;;;5054898;28;20191;-73
2023/04/27 05:13:16;;;;;;;0.93;0.93;;;6.80;73.80;;;;;;5057000;28;20274;-73
2023/04/27 05:15:42;;;;;;;7.63;1.20;;;6.80;73.90;;;;;;5057302;28;20650;-73
2023/04/27 05:18:07;;;;;;;0.60;0.60;;;6.80;73.60;;;;;;5059252;28;20190;-73
2023/04/27 05:20:37;;;;;;;0.63;0.63;;;6.70;73.70;;;;;;5057979;28;20184;-73
2023/04/27 05:23:03;;;;;;;4.10;1.10;;;6.70;74.00;;;;;;5057217;28;20693;-73
2023/04/27 05:25:31;;;;;;;0.60;0.50;;;6.70;73.70;;;;;;5056779;28;20213;-74
2023/04/27 05:27:56;;;;;;;0.70;0.70;;;6.60;73.50;;;;;;5055089;28;20196;-73
2023/04/27 05:30:22;;;;;;;2.83;0.73;;;6.50;73.90;;;;;;5055132;28;20191;-73
2023/04/27 05:32:47;;;;;;;6.37;0.70;;;6.50;74.10;;;;;;5056606;28;20302;-72
2023/04/27 05:35:13;;;;;;;1.07;1.07;;;6.50;74.00;;;;;;5058063;28;20262;-72
2023/04/27 05:37:39;;;;;;;2.90;0.63;;;6.50;73.90;;;;;;5056573;28;20273;-72
2023/04/27 05:40:08;;;;;;;1.17;0.50;;;6.60;74.10;;;;;;5053276;28;20182;-74
2023/04/27 05:42:33;;;;;;;1.00;1.00;;;6.60;74.30;;;;;;5056551;28;20186;-73
2023/04/27 05:44:59;;;;;;;0.60;0.60;;;6.60;74.30;;;;;;5058733;28;20172;-72
2023/04/27 05:47:25;;;;;;;0.57;0.57;;;6.70;74.30;;;;;;5057182;28;20261;-71
2023/04/27 05:49:51;;;;;;;0.67;0.67;;;6.70;74.30;;;;;;5058900;28;20194;-73
2023/04/27 05:52:18;;;;;;;1.50;1.43;;;6.80;74.20;;;;;;5061956;28;20250;-73
2023/04/27 05:54:48;;;;;;;1.27;0.90;;;6.70;74.50;;;;;;5056604;28;20198;-73
2023/04/27 05:57:14;;;;;;;1.63;0.90;;;6.80;74.50;;;;;;5058757;28;20186;-73
2023/04/27 05:59:41;;;;;;;3.73;1.30;;;6.90;74.20;;;;;;5052128;28;20191;-73
2023/04/27 06:02:06;;;;;;;1.27;0.70;;;7.00;74.40;;;;;;5056149;28;20261;-74
2023/04/27 06:04:32;;;;;;;0.80;0.80;;;7.00;73.90;;;;;;5060179;28;20672;-73
2023/04/27 06:06:58;;;;;;;0.83;0.83;;;7.00;74.10;;;;;;5060208;28;20254;-73
2023/04/27 06:09:24;;;;;;;0.57;0.57;;;7.10;74.20;;;;;;5056973;28;20570;-73
2023/04/27 06:11:50;;;;;;;1.33;1.30;;;7.20;74.00;;;;;;5056325;28;20176;-73
2023/04/27 06:14:16;;;;;;;3.63;1.00;;;7.20;73.80;;;;;;5056499;28;20191;-73
2023/04/27 06:16:42;;;;;;;0.70;0.70;;;7.40;73.90;;;;;;5059374;28;20221;-73
2023/04/27 06:19:08;;;;;;;1.10;0.97;;;7.40;73.30;;;;;;5055230;28;20223;-73
2023/04/27 06:21:34;;;;;;;1.50;0.77;;;7.50;73.20;;;;;;5057462;28;20582;-73
2023/04/27 06:24:00;;;;;;;1.53;1.10;;;7.60;73.20;;;;;;5051627;28;20183;-73
2023/04/27 06:26:27;;;;;;;0.97;0.93;;;7.80;73.00;;;;;;5060957;28;20176;-74
2023/04/27 06:28:53;;;;;;;0.80;0.80;;;7.90;72.40;;;;;;5055056;28;20214;-74
2023/04/27 06:31:19;;;;;;;1.07;1.00;;;8.10;72.70;;;;;;5054624;28;20229;-72
2023/04/27 06:33:45;;;;;;;1.80;0.93;;;8.20;71.90;;;;;;5057424;28;20219;-71
2023/04/27 06:36:10;;;;;;;1.03;0.97;;;8.30;71.40;;;;;;5058538;28;20175;-73
2023/04/27 06:38:36;;;;;;;4.63;0.97;;;8.30;71.20;;;;;;5051723;28;20273;-72
2023/04/27 06:41:02;;;;;;;2.10;0.90;;;8.30;71.20;;;;;;5050307;28;20175;-73
2023/04/27 06:43:29;;;;;;;1.47;1.40;;;8.30;70.80;;;;;;5049642;28;20567;-73
2023/04/27 06:45:54;;;;;;;0.87;0.87;;;8.30;70.80;;;;;;5049849;28;20188;-72
2023/04/27 06:48:20;;;;;;;1.50;1.07;;;8.40;70.70;;;;;;5050850;28;20218;-72
2023/04/27 06:50:46;;;;;;;0.97;0.97;;;8.40;70.10;;;;;;5051705;28;20572;-72
2023/04/27 06:53:12;;;;;;;0.73;0.73;;;8.50;70.00;;;;;;5053049;28;20568;-73
2023/04/27 06:55:38;;;;;;;0.80;0.80;;;8.60;70.20;;;;;;5053505;28;20183;-74
2023/04/27 06:58:04;;;;;;;0.80;0.80;;;8.70;69.50;;;;;;5058958;28;20191;-73
2023/04/27 07:00:30;;;;;;;0.83;0.83;;;8.80;69.30;;;;;;5057430;28;20694;-70
2023/04/27 07:02:56;;;;;;;0.93;0.93;;;8.80;69.40;;;;;;5056593;28;20229;-72
2023/04/27 07:05:22;;;;;;;1.40;1.33;;;8.90;69.00;;;;;;5054744;28;20179;-73
2023/04/27 07:07:48;;;;;;;0.90;0.90;;;8.90;69.40;;;;;;5060109;28;20585;-72
2023/04/27 07:10:14;;;;;;;1.50;0.80;;;8.90;69.50;;;;;;5059643;28;20211;-71
2023/04/27 07:12:41;;;;;;;1.40;1.10;;;9.00;69.70;;;;;;5054239;28;20211;-72
2023/04/27 07:15:07;;;;;;;2.00;1.27;;;9.20;68.70;;;;;;5057014;28;20183;-73
2023/04/27 07:17:33;;;;;;;0.70;0.70;;;9.10;67.90;;;;;;5056507;28;20236;-72
2023/04/27 07:20:00;;;;;;;4.87;1.03;;;9.10;68.30;;;;;;5056760;28;20175;-72
2023/04/27 07:22:25;;;;;;;4.10;0.93;;;9.20;68.30;;;;;;5053571;28;20180;-73
2023/04/27 07:24:51;;;;;;;1.08;1.08;;;9.40;68.50;;;;;;5051026;28;20176;-72
2023/04/27 07:27:17;;;;;;;1.10;1.05;;;9.70;68.00;;;;;;5054737;28;20241;-72
2023/04/27 07:29:43;;;;;;;0.95;0.95;;;10.00;67.20;;;;;;5057573;28;20183;-73
2023/04/27 07:32:09;;;;;;;3.00;1.20;;;10.20;67.00;;;;;;5049972;28;20202;-73
2023/04/27 07:34:35;;;;;;;3.45;1.13;;;10.50;66.30;;;;;;5059284;28;20221;-73
2023/04/27 07:37:02;;;;;;;0.98;0.98;;;10.70;65.10;;;;;;5056075;28;20703;-72
2023/04/27 07:39:27;;;;;;;1.30;1.00;;;10.90;64.50;;;;;;5059176;28;20300;-73
2023/04/27 07:41:53;;;;;;;0.90;0.90;;;11.00;63.50;;;;;;5054615;28;20309;-73
2023/04/27 07:44:20;;;;;;;1.00;1.00;;;11.20;63.60;;;;;;5057632;28;20175;-72
2023/04/27 07:46:47;;;;;;;4.20;1.02;;;11.40;63.30;;;;;;5050578;28;20183;-73
2023/04/27 07:49:14;;;;;;;1.05;0.80;;;11.50;63.30;;;;;;5056337;28;20772;-72
2023/04/27 07:51:39;;;;;;;1.50;0.82;;;11.70;62.40;;;;;;5051794;28;20567;-73
2023/04/27 07:54:05;;;;;;;2.92;1.05;;;11.80;62.20;;;;;;5054267;28;20201;-73
2023/04/27 07:56:31;;;;;;;4.43;1.20;;;11.50;62.30;;;;;;5058511;28;20658;-73
2023/04/27 07:58:57;;;;;;;0.80;0.80;;;11.70;62.00;;;;;;5051733;28;20671;-72
2023/04/27 08:01:23;;;;;;;1.05;1.00;;;11.70;62.30;;;;;;5054273;28;20232;-73
2023/04/27 08:03:49;;;;;;;0.90;0.90;;;11.90;62.10;;;;;;5053147;28;20179;-73
2023/04/27 08:06:16;;;;;;;0.73;0.73;;;11.80;61.00;;;;;;5052611;28;20738;-73
2023/04/27 08:08:42;;;;;;;1.75;0.70;;;11.90;61.90;;;;;;5055606;28;20619;-73
2023/04/27 08:11:11;;;;;;;2.05;1.00;;;12.00;62.00;;;;;;5054142;28;20187;-72
2023/04/27 08:13:37;;;;;;;0.70;0.70;;;12.00;61.90;;;;;;5056376;28;20178;-74
2023/04/27 08:16:03;;;;;;;0.70;0.70;;;12.10;61.20;;;;;;5049604;28;20191;-73
2023/04/27 08:18:29;;;;;;;1.65;0.80;;;12.30;61.40;;;;;;5051256;28;20199;-73
2023/04/27 08:20:54;;;;;;;0.60;0.60;;;12.50;61.90;;;;;;5055568;28;20952;-73
2023/04/27 08:23:20;;;;;;;1.05;1.00;;;12.70;61.40;;;;;;5058471;28;20221;-73
2023/04/27 08:25:47;;;;;;;0.90;0.90;;;12.70;61.10;;;;;;5055745;28;20206;-73
2023/04/27 08:28:13;;;;;;;1.02;0.60;;;12.60;59.90;;;;;;5058069;28;20242;-75
2023/04/27 08:30:41;;;;;;;0.77;0.77;;;12.60;60.20;;;;;;5056047;28;20175;-74
2023/04/27 08:33:07;;;;;;;2.88;0.77;;;12.70;59.90;;;;;;5055529;28;20194;-72
2023/04/27 08:35:33;;;;;;;3.60;0.80;;;12.90;60.40;;;;;;5053937;28;20190;-71
2023/04/27 08:37:58;;;;;;;0.68;0.68;;;13.20;59.60;;;;;;5055798;28;20176;-72
2023/04/27 08:40:24;;;;;;;0.85;0.85;;;13.40;59.70;;;;;;5060367;28;20215;-72
2023/04/27 08:42:57;;;;;;;0.82;0.82;;;13.70;59.60;;;;;;5057373;28;20175;-71
2023/04/27 08:45:23;;;;;;;1.13;1.02;;;13.90;59.50;;;;;;5060492;28;20237;-72
2023/04/27 08:47:50;;;;;;;1.10;0.98;;;14.10;59.70;;;;;;5056023;28;20198;-72
2023/04/27 08:50:16;;;;;;;1.70;1.10;;;14.20;57.90;;;;;;5058822;28;20186;-72
2023/04/27 08:52:48;;;;;;;1.35;1.27;;;14.00;58.70;;;;;;5058157;28;20187;-72
2023/04/27 08:55:13;;;;;;;0.95;0.90;;;14.20;59.80;;;;;;5055113;28;20168;-72
2023/04/27 08:57:39;;;;;;;0.60;0.60;;;14.20;57.40;;;;;;5059339;28;20191;-72
2023/04/27 09:00:12;;;;;;;1.20;1.20;;;14.30;57.20;;;;;;5056622;28;20637;-72
2023/04/27 09:02:48;;;;;;;4.50;1.10;;;14.40;57.40;;;;;;5057488;28;20669;-72
2023/04/27 09:05:22;;;;;;;1.00;1.00;;;14.00;57.40;;;;;;5055756;28;20641;-72
2023/04/27 09:08:06;;;;;;;4.95;1.17;;;14.00;57.50;;;;;;5054846;28;20273;-72
2023/04/27 09:10:49;;;;;;;1.10;1.10;;;13.70;57.00;;;;;;5058944;28;20181;-72
2023/04/27 09:13:15;;;;;;;0.73;0.73;;;13.50;57.60;;;;;;5064160;28;20179;-72
2023/04/27 09:15:49;;;;;;;2.15;0.90;;;13.30;57.90;;;;;;5054308;28;20591;-72
2023/04/27 09:18:25;;;;;;;1.85;0.80;;;13.50;58.10;;;;;;5047297;28;20179;-71
2023/04/27 09:20:52;;;;;;;1.30;1.15;;;13.80;58.10;;;;;;5047395;28;20168;-71
2023/04/27 09:23:28;;;;;;;0.90;0.90;;;14.00;57.30;;;;;;5056989;28;20190;-71
2023/04/27 09:25:58;;;;;;;1.20;0.80;;;14.20;57.20;;;;;;5048448;28;20182;-73
2023/04/27 09:28:29;;;;;;;0.77;0.77;;;14.60;57.60;;;;;;5052980;28;20292;-71
2023/04/27 09:30:57;;;;;;;0.95;0.95;;;15.00;55.80;;;;;;5053879;28;20914;-73
2023/04/27 09:33:30;;;;;;;1.40;1.13;;;15.20;54.80;;;;;;5046318;28;20195;-73
2023/04/27 09:36:00;;;;;;;1.30;0.80;;;15.30;55.60;;;;;;5053135;28;20236;-73
2023/04/27 09:38:26;;;;;;;1.23;1.00;;;14.80;54.50;;;;;;5055626;28;20239;-74
2023/04/27 09:40:53;;;;;;;0.98;0.98;;;14.80;55.60;;;;;;5047954;28;20870;-74
2023/04/27 09:43:19;;;;;;;0.90;0.90;;;15.50;54.60;;;;;;5048616;28;20199;-73
2023/04/27 09:45:45;;;;;;;3.53;1.05;;;15.70;52.70;;;;;;5050232;28;20241;-73
2023/04/27 09:48:12;;;;;;;1.90;1.00;;;15.40;53.40;;;;;;5051154;28;20262;-73
2023/04/27 09:50:43;;;;;;;0.95;0.90;;;15.40;55.60;;;;;;5052260;28;20175;-73
2023/04/27 09:53:11;;;;;;;2.05;1.13;;;15.50;53.80;;;;;;5050014;28;20187;-75
2023/04/27 09:55:48;;;;;;;0.98;0.50;;;15.70;54.50;;;;;;5046373;28;20182;-75
2023/04/27 09:58:17;;;;;;;2.33;0.65;;;16.30;55.00;;;;;;5050216;28;20176;-74
2023/04/27 10:01:00;;;;;;;0.85;0.85;;;17.30;51.30;;;;;;5051462;28;20184;-75
2023/04/27 10:03:54;;;;;;;1.38;1.10;;;17.30;51.40;;;;;;5055175;28;20187;-75
2023/04/27 10:06:51;;;;;;;1.23;0.85;;;16.20;51.80;;;;;;5054253;28;20273;-75
2023/04/27 10:09:23;;;;;;;0.60;0.60;;;16.00;52.70;;;;;;5053528;28;20303;-75
2023/04/27 10:11:51;;;;;;;3.20;0.80;;;16.20;53.70;;;;;;5052539;28;20176;-75
2023/04/27 10:14:22;;;;;;;1.05;0.85;;;15.90;52.50;;;;;;5050949;28;21734;-75
2023/04/27 10:16:56;;;;;;;0.80;0.80;;;15.90;52.70;;;;;;5052222;28;20179;-76
2023/04/27 10:19:23;;;;;;;0.65;0.65;;;16.20;51.60;;;;;;5051388;28;20648;-75
2023/04/27 10:22:01;;;;;;;1.17;0.85;;;16.40;52.00;;;;;;5047729;28;20606;-75
2023/04/27 10:24:38;;;;;;;1.40;0.88;;;16.40;52.60;;;;;;5046842;28;20265;-76
2023/04/27 10:27:05;;;;;;;0.68;0.68;;;16.40;53.50;;;;;;5049598;28;20182;-76
2023/04/27 10:29:45;;;;;;;3.40;0.80;;;15.80;51.60;;;;;;5050031;28;20195;-73
2023/04/27 10:32:25;;;;;;;0.82;0.82;;;16.50;51.60;;;;;;5051754;28;20183;-74
2023/04/27 10:35:07;;;;;;;0.90;0.90;;;17.00;50.80;;;;;;5055271;28;20183;-72
2023/04/27 10:37:42;;;;;;;0.63;0.63;;;17.20;50.80;;;;;;5051988;28;20266;-74
2023/04/27 10:40:16;;;;;;;3.22;0.70;;;16.70;51.40;;;;;;5054889;28;20209;-74
2023/04/27 10:42:48;;;;;;;0.57;0.57;;;16.60;50.80;;;;;;5051628;28;20168;-74
2023/04/27 10:45:13;;;;;;;1.60;0.93;;;16.80;51.30;;;;;;5050130;28;20290;-74
2023/04/27 10:47:46;;;;;;;0.80;0.80;;;16.80;51.40;;;;;;5054083;28;20265;-74
2023/04/27 10:50:13;;;;;;;0.60;0.60;;;16.10;50.30;;;;;;5051444;28;20245;-74
2023/04/27 10:52:43;;;;;;;0.80;0.80;;;15.90;51.00;;;;;;5051398;28;20242;-75
2023/04/27 10:55:27;;;;;;;1.30;1.15;;;16.40;52.90;;;;;;5049202;28;20180;-74
2023/04/27 10:57:54;;;;;;;1.73;1.10;;;16.90;49.80;;;;;;5047137;28;20614;-74
2023/04/27 11:00:27;;;;;;;1.13;0.93;;;16.30;49.20;;;;;;5049844;28;20716;-74
2023/04/27 11:02:55;;;;;;;0.70;0.70;;;15.90;52.10;;;;;;5050660;28;20637;-74
2023/04/27 11:05:28;;;;;;;1.75;0.80;;;15.70;51.00;;;;;;5054337;28;20189;-74
2023/04/27 11:08:08;;;;;;;0.73;0.73;;;15.40;51.90;;;;;;5054087;28;20210;-76
2023/04/27 11:10:37;;;;;;;1.35;0.80;;;15.80;52.30;;;;;;5061700;28;20182;-74
2023/04/27 11:13:11;;;;;;;3.13;0.98;;;16.40;51.50;;;;;;5056889;28;20190;-74
2023/04/27 11:15:46;;;;;;;0.90;0.75;;;17.10;50.40;;;;;;5053812;28;20184;-74
2023/04/27 11:18:12;;;;;;;0.60;0.60;;;17.70;49.50;;;;;;5050372;28;20552;-74
2023/04/27 11:20:38;;;;;;;0.70;0.70;;;18.30;49.20;;;;;;5054179;28;20731;-74
2023/04/27 11:23:04;;;;;;;0.90;0.85;;;18.30;48.60;;;;;;5050307;28;20176;-74
2023/04/27 11:25:31;;;;;;;0.68;0.68;;;18.20;49.00;;;;;;5046990;28;20183;-74
2023/04/27 11:27:57;;;;;;;0.93;0.80;;;17.70;48.80;;;;;;5057250;28;20207;-74
2023/04/27 11:30:23;;;;;;;0.65;0.65;;;16.80;49.60;;;;;;5054560;28;20171;-74
2023/04/27 11:32:49;;;;;;;0.68;0.68;;;16.50;50.90;;;;;;5050349;28;20188;-75
2023/04/27 11:35:17;;;;;;;0.73;0.73;;;16.50;51.00;;;;;;5051618;28;20674;-74
2023/04/27 11:37:43;;;;;;;2.53;1.00;;;16.10;51.00;;;;;;5050824;28;20214;-75
2023/04/27 11:40:12;;;;;;;2.78;1.65;;;15.80;51.40;;;;;;5051526;28;20175;-75
2023/04/27 11:42:42;;;;;;;2.40;1.15;;;16.00;53.40;;;;;;5050591;28;20620;-75
2023/04/27 11:45:10;;;;;;;2.15;1.13;;;16.30;51.80;;;;;;5051253;28;20729;-74
2023/04/27 11:47:36;;;;;;;2.85;1.10;;;16.30;51.40;;;;;;5053130;28;20207;-74
2023/04/27 11:50:05;;;;;;;1.17;1.05;;;16.10;52.20;;;;;;5053007;28;20184;-74
2023/04/27 11:52:35;;;;;;;1.00;1.00;;;16.00;51.30;;;;;;5049798;28;20189;-75
2023/04/27 11:55:07;;;;;;;1.00;1.00;;;15.70;52.50;;;;;;5049479;28;20187;-75
2023/04/27 11:57:35;;;;;;;4.68;1.15;;;15.80;52.70;;;;;;5046921;28;20210;-75
2023/04/27 12:00:09;;;;;;;1.35;1.25;;;16.00;51.00;;;;;;5055179;28;20183;-75
2023/04/27 12:02:35;;;;;;;1.38;1.20;;;15.80;51.80;;;;;;5050913;28;20219;-75
2023/04/27 12:05:02;;;;;;;0.70;0.70;;;15.80;52.30;;;;;;5052098;28;20288;-74
2023/04/27 12:07:28;;;;;;;0.80;0.80;;;15.50;52.00;;;;;;5049002;28;20180;-75
2023/04/27 12:09:53;;;;;;;1.00;1.00;;;15.20;52.50;;;;;;5056701;28;20179;-75
2023/04/27 12:12:21;;;;;;;0.65;0.65;;;14.70;52.70;;;;;;5054611;28;20671;-74
2023/04/27 12:14:47;;;;;;;0.98;0.98;;;14.40;54.00;;;;;;5050684;28;20651;-73
2023/04/27 12:17:13;;;;;;;1.77;1.00;;;14.40;54.00;;;;;;5048843;28;20188;-75
2023/04/27 12:19:38;;;;;;;2.85;1.00;;;14.40;53.50;;;;;;5048377;28;20253;-75
2023/04/27 12:22:04;;;;;;;0.75;0.75;;;14.40;54.80;;;;;;5048668;28;20172;-74
2023/04/27 12:24:31;;;;;;;0.82;0.82;;;14.50;54.30;;;;;;5051492;28;20244;-73
2023/04/27 12:26:57;;;;;;;0.95;0.95;;;14.30;53.70;;;;;;5047697;28;20186;-73
2023/04/27 12:29:23;;;;;;;1.42;0.98;;;14.20;53.60;;;;;;5054033;28;20289;-73
2023/04/27 12:31:49;;;;;;;0.90;0.90;;;14.20;54.30;;;;;;5050982;28;20214;-73
2023/04/27 12:34:15;;;;;;;4.30;0.80;;;14.30;54.90;;;;;;5051989;28;20171;-73
2023/04/27 12:36:41;;;;;;;1.67;0.90;;;14.30;54.50;;;;;;5054435;28;20186;-73
2023/04/27 12:39:18;;;;;;;1.65;1.00;;;14.40;55.10;;;;;;5050471;28;20606;-74
2023/04/27 12:41:46;;;;;;;0.80;0.80;;;14.70;55.40;;;;;;5049985;28;20270;-74
2023/04/27 12:44:12;;;;;;;0.82;0.82;;;14.80;54.70;;;;;;5052848;28;20255;-74
2023/04/27 12:46:42;;;;;;;1.55;0.75;;;14.40;53.60;;;;;;5053416;28;20191;-73
2023/04/27 12:49:09;;;;;;;0.80;0.80;;;14.20;54.30;;;;;;5051094;28;20203;-74
2023/04/27 12:51:35;;;;;;;0.90;0.90;;;14.00;54.60;;;;;;5050173;28;20180;-74
2023/04/27 12:54:06;;;;;;;0.90;0.90;;;13.90;55.10;;;;;;5053203;28;20282;-74